WATERFRONT PARK AT CHARLESTON SC US NWS current weather conditions

sailwx.info

Wind from 122 at 9 knots gusting 11

Last reported at 2020-Jul-07 16:30 UTC.
Time now 2020-Jul-07 17:43 UTC

Location: N 32°46' W 079°55'.
View on Google Maps.

See reports from other nearby stations

  
Tides and Currents Weather Stations Pressure Air Temp Water Temp Dewpoint Dewpoint Depression Visibility Wind Speed Wind Dir Waves Ship Positions
date/time (UTC)wind fromknots sea level pressurealtimeterstation pressurevisibilityair tempwater tempwave heightnotes
2020-Jul-07 16:30 122 9 gusting 11
2020-Jul-07 15:30 103 7 gusting 8
2020-Jul-07 14:30 093 6 gusting 7
2020-Jul-07 13:30 141 3 gusting 5
2020-Jul-07 12:30 107 1 gusting 3
2020-Jul-07 11:30 059 0 gusting 1
2020-Jul-07 10:30 237 1 gusting 3
2020-Jul-07 09:30 264 2 gusting 4
2020-Jul-07 08:30 245 1 gusting 3
2020-Jul-07 07:30 184 3 gusting 5
2020-Jul-07 06:30 184 4 gusting 4
2020-Jul-07 05:30 167 3 gusting 4
2020-Jul-07 04:30 155 2 gusting 3
2020-Jul-07 03:30 194 1 gusting 3
2020-Jul-07 02:30 298 1 gusting 4
2020-Jul-07 01:30 191 9 gusting 14
2020-Jul-07 00:30 170 8 gusting 11
2020-Jul-06 23:30 174 8 gusting 10
2020-Jul-06 22:30 162 8 gusting 10
2020-Jul-06 21:30 160 8 gusting 12
2020-Jul-06 20:30 161 8 gusting 13
2020-Jul-06 19:30 129 8 gusting 10
2020-Jul-06 18:30 124 9 gusting 11
2020-Jul-06 17:30 135 6 gusting 9
2020-Jul-06 16:30 155 6 gusting 8
2020-Jul-06 15:30 166 6 gusting 8
2020-Jul-06 14:30 185 6 gusting 7
2020-Jul-06 13:30 121 2 gusting 4
2020-Jul-06 12:30 197 2 gusting 3
2020-Jul-06 11:30 184 2 gusting 3
2020-Jul-06 10:30 198 2 gusting 3
2020-Jul-06 09:30 201 2 gusting 3
2020-Jul-06 08:30 192 2 gusting 3
2020-Jul-06 07:30 153 3 gusting 5
2020-Jul-06 06:30 150 4 gusting 5
2020-Jul-06 05:30 178 3 gusting 6
2020-Jul-06 04:30 183 4 gusting 10
2020-Jul-06 03:30 175 7 gusting 11
2020-Jul-06 02:30 177 11 gusting 18
2020-Jul-06 01:30 144 8 gusting 11
2020-Jul-06 00:30 164 11 gusting 13
2020-Jul-05 23:30 155 9 gusting 12
2020-Jul-05 22:30 122 10 gusting 13
2020-Jul-05 21:30 116 11 gusting 14
2020-Jul-05 20:30 113 8 gusting 10
2020-Jul-05 19:30 128 8 gusting 9
2020-Jul-05 18:30 128 7 gusting 10
2020-Jul-05 17:30 120 7 gusting 10